createdAt,value
2022-08-26T00:00:48.234Z,34.4
2022-08-26T00:02:04.526Z,33.8
2022-08-26T00:03:19.837Z,35.9
2022-08-26T00:04:36.134Z,33.5
2022-08-26T00:05:52.430Z,34.6
2022-08-26T00:07:08.725Z,31.9
2022-08-26T00:08:25.013Z,31.9
2022-08-26T00:09:41.314Z,31.8
2022-08-26T00:10:57.608Z,33.1
2022-08-26T00:12:13.896Z,32.7
2022-08-26T00:13:30.183Z,33.4
2022-08-26T00:14:46.482Z,31.8
2022-08-26T00:16:02.774Z,33.5
2022-08-26T00:17:19.072Z,34.9
2022-08-26T00:18:35.375Z,35.7
2022-08-26T00:19:50.688Z,33.4
2022-08-26T00:21:06.976Z,34
2022-08-26T00:23:39.565Z,34.9
2022-08-26T00:24:55.850Z,36
2022-08-26T00:26:12.148Z,34.9
2022-08-26T00:27:28.449Z,37.4
2022-08-26T00:28:44.731Z,37.6
2022-08-26T00:30:01.030Z,36
2022-08-26T00:31:17.319Z,35.3
2022-08-26T00:32:33.620Z,34.3
2022-08-26T00:33:49.921Z,32.9
2022-08-26T00:35:06.214Z,35
2022-08-26T00:36:21.508Z,35.8
2022-08-26T00:38:54.000Z,35.3
2022-08-26T00:40:10.390Z,39.7
2022-08-26T00:41:26.701Z,57.9
2022-08-26T00:42:42.985Z,54
2022-08-26T00:43:59.274Z,37
2022-08-26T00:45:15.586Z,38.2
2022-08-26T00:46:31.865Z,35
2022-08-26T00:47:48.155Z,34.5
2022-08-26T00:49:04.465Z,36.5
2022-08-26T00:50:20.756Z,37
2022-08-26T00:52:53.345Z,36.7
2022-08-26T00:54:08.659Z,38.5
2022-08-26T00:55:24.943Z,41.5
2022-08-26T00:56:41.250Z,38.4
2022-08-26T00:57:57.539Z,35.7
2022-08-26T00:59:13.817Z,36.6
2022-08-26T01:00:30.117Z,36.2
2022-08-26T01:01:46.416Z,40.8
2022-08-26T01:03:02.711Z,43.5
2022-08-26T01:04:19.000Z,37.5
2022-08-26T01:05:35.303Z,36.4
2022-08-26T01:06:51.582Z,36.2
2022-08-26T01:09:24.177Z,37.4
2022-08-26T01:10:39.489Z,38.4
2022-08-26T01:11:55.784Z,35.5
2022-08-26T01:13:12.073Z,40.1
2022-08-26T01:14:28.360Z,34.9
2022-08-26T01:15:44.671Z,38.4
2022-08-26T01:17:00.961Z,37.2
2022-08-26T01:18:17.251Z,38.5
2022-08-26T01:19:33.556Z,37.9
2022-08-26T01:20:49.843Z,38.4
2022-08-26T01:22:06.132Z,40
2022-08-26T01:23:22.432Z,41.2
2022-08-26T01:24:38.733Z,36.2
2022-08-26T01:25:55.015Z,41.3
2022-08-26T01:27:10.320Z,38.2
2022-08-26T01:28:26.632Z,40.9
2022-08-26T01:29:42.915Z,37.3
2022-08-26T01:32:15.499Z,38.1
2022-08-26T01:33:31.793Z,40.9
2022-08-26T01:34:48.089Z,39.2
2022-08-26T01:36:04.377Z,40.8
2022-08-26T01:37:20.670Z,38.5
2022-08-26T01:38:36.978Z,41.7
2022-08-26T01:39:53.265Z,39.3
2022-08-26T01:41:09.554Z,38.1
2022-08-26T01:42:25.850Z,39.1
2022-08-26T01:43:41.175Z,43.5
2022-08-26T01:44:57.454Z,38.6
2022-08-26T01:46:13.747Z,42.6
2022-08-26T01:47:30.047Z,40.6
2022-08-26T01:48:46.335Z,40.3
2022-08-26T01:50:02.639Z,41
2022-08-26T01:51:18.939Z,39.9
2022-08-26T01:52:35.223Z,44.9
2022-08-26T01:53:51.521Z,42.2
2022-08-26T01:55:07.822Z,40.8
2022-08-26T01:56:24.116Z,43.7
2022-08-26T01:57:40.396Z,42.8
2022-08-26T01:58:56.700Z,41.2
2022-08-26T02:00:12.014Z,42.5
2022-08-26T02:01:28.309Z,39.8
2022-08-26T02:02:44.592Z,42.4
2022-08-26T02:04:00.887Z,45.7
2022-08-26T02:05:17.192Z,43.9
2022-08-26T02:06:33.482Z,41.9
2022-08-26T02:07:49.780Z,42.8
2022-08-26T02:09:06.054Z,39.4
2022-08-26T02:10:22.359Z,40.5
2022-08-26T02:12:54.948Z,41.3
2022-08-26T02:14:11.234Z,43.4
2022-08-26T02:15:27.528Z,40.2
2022-08-26T02:16:42.840Z,42.1
2022-08-26T02:17:59.143Z,38.9
2022-08-26T02:19:15.441Z,38
2022-08-26T02:20:31.732Z,41.2
2022-08-26T02:21:48.014Z,43.1
2022-08-26T02:23:04.309Z,45
2022-08-26T02:24:20.616Z,40.6
2022-08-26T02:25:36.901Z,39.9
2022-08-26T02:26:53.190Z,39.5
2022-08-26T02:28:09.500Z,42.8
2022-08-26T02:29:25.793Z,41
2022-08-26T02:30:42.074Z,42.1
2022-08-26T02:31:58.376Z,41.8
2022-08-26T02:33:13.692Z,42.5
2022-08-26T02:34:29.968Z,42.2
2022-08-26T02:35:46.266Z,40.6
2022-08-26T02:37:02.567Z,42.8
2022-08-26T02:38:18.853Z,43
2022-08-26T02:40:51.460Z,41.8
2022-08-26T02:42:07.751Z,44.5
2022-08-26T02:43:24.031Z,44.4
2022-08-26T02:44:40.324Z,42.2
2022-08-26T02:45:56.628Z,48.4
2022-08-26T02:47:12.918Z,43.2
2022-08-26T02:48:29.207Z,47.3
2022-08-26T02:49:44.524Z,42.9
2022-08-26T02:51:00.806Z,43.6
2022-08-26T02:52:17.108Z,47.3
2022-08-26T02:53:33.401Z,48
2022-08-26T02:54:49.706Z,46.4
2022-08-26T02:56:06.005Z,43.4
2022-08-26T02:57:22.290Z,42.1
2022-08-26T02:58:38.590Z,44.6
2022-08-26T02:59:54.870Z,43.6
2022-08-26T03:01:11.168Z,42.9
2022-08-26T03:02:27.464Z,44.5
2022-08-26T03:03:43.753Z,46.9
2022-08-26T03:05:00.043Z,45.6
2022-08-26T03:06:15.354Z,49.3
2022-08-26T03:07:31.650Z,48.6
2022-08-26T03:08:47.940Z,50.4
2022-08-26T03:10:04.242Z,50
2022-08-26T03:11:20.529Z,49.2
2022-08-26T03:12:36.837Z,47.9
2022-08-26T03:13:53.122Z,51.9
2022-08-26T03:15:09.420Z,47.7
2022-08-26T03:16:25.712Z,48.5
2022-08-26T03:18:58.296Z,48.4
2022-08-26T03:20:14.590Z,45.8
2022-08-26T03:21:30.893Z,48.3
2022-08-26T03:22:46.196Z,46.5
2022-08-26T03:24:02.491Z,50.7
2022-08-26T03:26:35.072Z,51.2
2022-08-26T03:27:51.367Z,53.7
2022-08-26T03:29:07.677Z,57.1
2022-08-26T03:30:23.958Z,49.5
2022-08-26T03:31:40.250Z,49.2
2022-08-26T03:34:12.794Z,52.6
2022-08-26T03:35:28.063Z,55.5
2022-08-26T03:36:43.324Z,50.6
2022-08-26T03:37:59.555Z,54
2022-08-26T03:39:15.868Z,50.2
2022-08-26T03:40:32.116Z,50.3
2022-08-26T03:41:48.359Z,53.1
2022-08-26T03:43:04.594Z,56
2022-08-26T03:44:20.831Z,56
2022-08-26T03:45:37.060Z,57.2
2022-08-26T03:46:53.306Z,60
2022-08-26T03:48:09.555Z,62
2022-08-26T03:49:24.805Z,56.4
2022-08-26T03:50:40.075Z,54.6
2022-08-26T03:53:12.564Z,52.1
2022-08-26T03:54:28.784Z,55.4
2022-08-26T03:57:01.265Z,54.1
2022-08-26T03:59:33.755Z,57
2022-08-26T04:00:49.990Z,56.2
2022-08-26T04:02:05.255Z,56.7
2022-08-26T04:03:21.492Z,63.2
2022-08-26T04:04:37.722Z,64.3
2022-08-26T04:05:53.961Z,59.6
2022-08-26T04:07:09.238Z,56.8
2022-08-26T04:08:24.490Z,58.3
2022-08-26T04:09:40.725Z,58.3
2022-08-26T04:10:56.967Z,60.6
2022-08-26T04:12:13.205Z,63.2
2022-08-26T04:13:29.446Z,63.1
2022-08-26T04:14:45.694Z,63.4
2022-08-26T04:16:01.935Z,61.8
2022-08-26T04:17:18.163Z,61.3
2022-08-26T04:18:34.404Z,66
2022-08-26T04:19:50.656Z,57.2
2022-08-26T04:21:05.906Z,52
2022-08-26T04:22:21.158Z,58.9
2022-08-26T04:23:37.406Z,58.7
2022-08-26T04:24:53.643Z,62
2022-08-26T04:27:26.120Z,57.8
2022-08-26T04:28:42.361Z,53.9
2022-08-26T04:29:58.612Z,61.8
2022-08-26T04:31:14.851Z,62.9
2022-08-26T04:32:31.081Z,59.7
2022-08-26T04:35:03.575Z,61.4
2022-08-26T04:36:19.814Z,64.8
2022-08-26T04:37:35.067Z,61.4
2022-08-26T04:38:50.323Z,58.3
2022-08-26T04:40:06.574Z,63.6
2022-08-26T04:41:22.804Z,59.1
2022-08-26T04:42:39.036Z,57
2022-08-26T04:43:55.287Z,55.1
2022-08-26T04:45:11.536Z,53.6
2022-08-26T04:46:27.772Z,60.2
2022-08-26T04:47:44.008Z,59.5
2022-08-26T04:49:00.251Z,54
2022-08-26T04:50:16.487Z,59.8
2022-08-26T04:51:31.755Z,60.7
2022-08-26T04:52:47.012Z,58.5
2022-08-26T04:54:03.234Z,54.9
2022-08-26T04:55:19.479Z,58.9
2022-08-26T04:56:35.736Z,55.4
2022-08-26T04:57:51.974Z,50.6
2022-08-26T04:59:08.203Z,52.6
2022-08-26T05:00:24.441Z,48.2
2022-08-26T05:01:40.675Z,47.5
2022-08-26T05:02:56.927Z,48.5
2022-08-26T05:04:13.160Z,48
2022-08-26T05:05:29.399Z,50.5
2022-08-26T05:06:45.639Z,49.9
2022-08-26T05:08:01.880Z,51.6
2022-08-26T05:09:17.141Z,45
2022-08-26T05:10:33.379Z,47.6
2022-08-26T05:14:22.100Z,46.4
2022-08-26T05:15:37.364Z,46.9
2022-08-26T05:16:52.626Z,47.7
2022-08-26T05:18:08.851Z,45.3
2022-08-26T05:20:41.343Z,46.9
2022-08-26T05:21:57.576Z,50.2
2022-08-26T05:23:13.826Z,45.8
2022-08-26T05:24:30.060Z,46.7
2022-08-26T05:27:02.546Z,46.5
2022-08-26T05:28:18.775Z,46.6
2022-08-26T05:29:35.021Z,41.2
2022-08-26T05:30:51.269Z,41.3
2022-08-26T05:32:06.525Z,43.4
2022-08-26T05:33:21.769Z,41.2
2022-08-26T05:34:38.014Z,41.6
2022-08-26T05:35:54.257Z,40.6
2022-08-26T05:37:10.501Z,41.4
2022-08-26T05:38:26.732Z,42.8
2022-08-26T05:39:42.982Z,42.7
2022-08-26T05:40:59.217Z,44.6
2022-08-26T05:42:15.449Z,42.7
2022-08-26T05:43:31.697Z,43
2022-08-26T05:44:47.939Z,42.2
2022-08-26T05:46:03.202Z,42.1
2022-08-26T05:47:18.000Z,38.1
2022-08-26T05:48:34.700Z,44.1
2022-08-26T05:49:50.937Z,39.4
2022-08-26T05:51:07.176Z,40.4
2022-08-26T05:52:23.420Z,40.7
2022-08-26T05:53:39.648Z,38.9
2022-08-26T05:54:55.904Z,43
2022-08-26T05:56:12.127Z,41.4
2022-08-26T05:57:28.383Z,41.8
2022-08-26T05:58:44.619Z,39.9
2022-08-26T05:59:59.874Z,37.5
2022-08-26T06:01:15.133Z,40.2
2022-08-26T06:02:31.385Z,40.8
2022-08-26T06:03:47.613Z,38.6
2022-08-26T06:06:20.098Z,37.3
2022-08-26T06:07:36.327Z,38.2
2022-08-26T06:08:52.576Z,39.6
2022-08-26T06:10:08.812Z,38.9
2022-08-26T06:11:25.066Z,40
2022-08-26T06:12:41.305Z,39.4
2022-08-26T06:13:57.542Z,42.5
2022-08-26T06:15:13.786Z,38.3
2022-08-26T06:16:30.009Z,35.5
2022-08-26T06:17:45.263Z,33.4
2022-08-26T06:19:01.510Z,37.7
2022-08-26T06:20:17.745Z,36
2022-08-26T06:21:34.000Z,36.7
2022-08-26T06:22:50.233Z,33.9
2022-08-26T06:24:06.467Z,34.2
2022-08-26T06:25:22.000Z,33.6
2022-08-26T06:26:38.946Z,34.3
2022-08-26T06:29:11.431Z,32.1
2022-08-26T06:30:27.684Z,32.7
2022-08-26T06:31:43.920Z,30.8
2022-08-26T06:33:00.157Z,31.6
2022-08-26T06:34:15.406Z,30
2022-08-26T06:35:31.647Z,30.8
2022-08-26T06:36:47.899Z,30.4
2022-08-26T06:38:04.121Z,28
2022-08-26T06:39:20.377Z,34.3
2022-08-26T06:40:36.614Z,30.8
2022-08-26T06:41:52.850Z,32
2022-08-26T06:44:25.337Z,30.3
2022-08-26T06:45:41.579Z,31.5
2022-08-26T06:46:57.818Z,28.9
2022-08-26T06:48:14.046Z,30.6
2022-08-26T06:49:30.283Z,27.6
2022-08-26T06:52:01.796Z,27.7
2022-08-26T06:53:17.051Z,28.4
2022-08-26T06:54:32.315Z,27.9
2022-08-26T06:55:48.553Z,25.3
2022-08-26T06:57:04.796Z,26.6
2022-08-26T06:58:21.024Z,27.8
2022-08-26T06:59:37.276Z,29.6
2022-08-26T07:00:53.511Z,27.3
2022-08-26T07:02:09.753Z,27.3
2022-08-26T07:03:25.980Z,28.3
2022-08-26T07:04:42.237Z,30.1
2022-08-26T07:05:58.470Z,29.5
2022-08-26T07:07:13.737Z,28.9
2022-08-26T07:08:28.984Z,27.2
2022-08-26T07:09:45.222Z,29.9
2022-08-26T07:11:01.468Z,28
2022-08-26T07:12:17.712Z,27.8
2022-08-26T07:13:33.936Z,28.8
2022-08-26T07:14:50.195Z,27.4
2022-08-26T07:16:06.418Z,27.4
2022-08-26T07:17:22.674Z,26.2
2022-08-26T07:18:38.907Z,29.6
2022-08-26T07:19:55.147Z,29.2
2022-08-26T07:21:11.383Z,30.2
2022-08-26T07:22:27.628Z,26.9
2022-08-26T07:23:43.870Z,25.9
2022-08-26T07:24:59.126Z,28.4
2022-08-26T07:26:15.363Z,30.4
2022-08-26T07:27:31.608Z,27.2
2022-08-26T07:28:47.838Z,26.6
2022-08-26T07:30:04.074Z,27.9
2022-08-26T07:31:20.334Z,27.9
2022-08-26T07:32:36.570Z,27.8
2022-08-26T07:33:52.808Z,30.4
2022-08-26T07:35:09.048Z,28.8
2022-08-26T07:36:25.287Z,30.1
2022-08-26T07:37:41.527Z,26.2
2022-08-26T07:38:57.761Z,25.6
2022-08-26T07:40:14.015Z,32.7
2022-08-26T07:41:29.264Z,28.4
2022-08-26T07:42:45.503Z,27.2
2022-08-26T07:44:01.751Z,26.3
2022-08-26T07:46:34.217Z,27.1
2022-08-26T07:47:50.468Z,25.9
2022-08-26T07:49:06.711Z,27.8
2022-08-26T07:50:22.951Z,28.9
2022-08-26T07:51:39.180Z,28.8
2022-08-26T07:52:55.416Z,27
2022-08-26T07:54:11.668Z,27.8
2022-08-26T07:55:27.898Z,25.4
2022-08-26T07:56:44.142Z,24.9
2022-08-26T07:57:59.412Z,24.2
2022-08-26T08:00:31.874Z,26
2022-08-26T08:01:48.115Z,25.7
2022-08-26T08:03:04.372Z,28.6
2022-08-26T08:04:20.611Z,27.2
2022-08-26T08:05:36.838Z,25
2022-08-26T08:06:53.086Z,26.1
2022-08-26T08:08:09.321Z,24.6
2022-08-26T08:09:25.556Z,25.3
2022-08-26T08:10:41.799Z,24.1
2022-08-26T08:11:58.054Z,24.8
2022-08-26T08:13:14.291Z,27.1
2022-08-26T08:15:45.774Z,24
2022-08-26T08:17:01.051Z,25.3
2022-08-26T08:18:17.273Z,23.3
2022-08-26T08:20:49.767Z,20.7
2022-08-26T08:22:05.019Z,23.9
2022-08-26T08:23:20.273Z,21
2022-08-26T08:24:36.525Z,24.8
2022-08-26T08:25:52.750Z,25.9
2022-08-26T08:27:08.997Z,23.4
2022-08-26T08:28:25.236Z,21
2022-08-26T08:30:57.731Z,24.2
2022-08-26T08:32:13.956Z,25.5
2022-08-26T08:34:46.452Z,21.3
2022-08-26T08:36:02.691Z,22.1
2022-08-26T08:37:18.930Z,23.2
2022-08-26T08:38:34.180Z,20.6
2022-08-26T08:41:05.676Z,20.9
2022-08-26T08:42:21.922Z,24
2022-08-26T08:43:38.165Z,25.8
2022-08-26T08:44:54.397Z,25.3
2022-08-26T08:46:10.645Z,24
2022-08-26T08:47:26.890Z,24.8
2022-08-26T08:48:43.129Z,25.5
2022-08-26T08:49:59.366Z,24.6
2022-08-26T08:51:15.595Z,22.9
2022-08-26T08:53:48.085Z,24.5
2022-08-26T08:55:04.332Z,20.3
2022-08-26T08:56:19.585Z,25.7
2022-08-26T08:57:35.815Z,21.7
2022-08-26T08:58:52.069Z,21.7
2022-08-26T09:01:24.551Z,23
2022-08-26T09:02:40.778Z,21.3
2022-08-26T09:03:57.029Z,22.2
2022-08-26T09:05:13.260Z,24
2022-08-26T09:06:29.509Z,24.7
2022-08-26T09:07:45.748Z,20.8
2022-08-26T09:09:01.986Z,24.6
2022-08-26T09:10:18.218Z,21.9
2022-08-26T09:11:34.458Z,28.6
2022-08-26T09:12:49.731Z,23.9
2022-08-26T09:14:05.971Z,24
2022-08-26T09:15:22.206Z,23.6
2022-08-26T09:16:38.446Z,22.8
2022-08-26T09:17:54.682Z,24.2
2022-08-26T09:19:10.923Z,22.9
2022-08-26T09:20:26.182Z,22.2
2022-08-26T09:21:41.448Z,23.2
2022-08-26T09:22:57.689Z,24.1
2022-08-26T09:24:13.922Z,23.4
2022-08-26T09:25:30.156Z,23.9
2022-08-26T09:26:46.411Z,23.4
2022-08-26T09:28:02.650Z,22.7
2022-08-26T09:29:18.879Z,22
2022-08-26T09:31:51.359Z,24.1
2022-08-26T09:33:07.609Z,22.8
2022-08-26T09:34:23.845Z,22.6
2022-08-26T09:35:40.088Z,24.3
2022-08-26T09:36:56.323Z,23.7
2022-08-26T09:38:11.584Z,24.2
2022-08-26T09:39:27.819Z,22.1
2022-08-26T09:40:44.062Z,22.4
2022-08-26T09:42:00.310Z,23.9
2022-08-26T09:43:16.548Z,24.9
2022-08-26T09:44:32.775Z,22.8
2022-08-26T09:47:05.261Z,26.5
2022-08-26T09:48:21.515Z,23.3
2022-08-26T09:49:37.737Z,23.5
2022-08-26T09:50:53.993Z,22.1
2022-08-26T09:52:10.232Z,22.2
2022-08-26T09:53:26.469Z,21.4
2022-08-26T09:54:41.716Z,23.1
2022-08-26T09:55:57.964Z,20.1
2022-08-26T09:57:14.211Z,22.4
2022-08-26T09:58:29.464Z,23.5
2022-08-26T09:59:44.711Z,22.4
2022-08-26T10:01:00.969Z,20.4
2022-08-26T10:02:17.198Z,23.1
2022-08-26T10:03:33.436Z,23.1
2022-08-26T10:04:49.678Z,22.9
2022-08-26T10:06:05.917Z,20.8
2022-08-26T10:07:22.154Z,25.4
2022-08-26T10:08:38.403Z,22.2
2022-08-26T10:09:54.631Z,20.1
2022-08-26T10:11:10.888Z,22.8
2022-08-26T10:12:27.126Z,21.4
2022-08-26T10:13:43.364Z,21.4
2022-08-26T10:14:59.613Z,21.6
2022-08-26T10:16:14.868Z,21.7
2022-08-26T10:17:31.103Z,23.2
2022-08-26T10:18:47.353Z,23.2
2022-08-26T10:20:03.572Z,20.5
2022-08-26T10:21:19.823Z,22.1
2022-08-26T10:22:36.057Z,24.1
2022-08-26T10:23:52.304Z,25.1
2022-08-26T10:25:08.539Z,20.4
2022-08-26T10:26:24.788Z,26.7
2022-08-26T10:27:41.026Z,24
2022-08-26T10:28:57.256Z,21.4
2022-08-26T10:30:13.508Z,24.5
2022-08-26T10:31:29.737Z,20.5
2022-08-26T10:32:45.006Z,22.9
2022-08-26T10:34:01.236Z,20.1
2022-08-26T10:35:17.485Z,18.2
2022-08-26T10:36:33.730Z,20.1
2022-08-26T10:37:49.961Z,20.8
2022-08-26T10:39:06.196Z,21.1
2022-08-26T10:40:22.437Z,21.6
2022-08-26T10:41:38.690Z,21.5
2022-08-26T10:42:54.931Z,20.4
2022-08-26T10:44:11.162Z,22
2022-08-26T10:45:27.413Z,19.8
2022-08-26T10:47:59.877Z,19.2
2022-08-26T10:49:15.136Z,20.5
2022-08-26T10:50:31.387Z,17.1
2022-08-26T10:51:47.621Z,19.2
2022-08-26T10:53:03.866Z,21.1
2022-08-26T10:54:20.108Z,20.3
2022-08-26T10:55:36.339Z,19.3
2022-08-26T10:56:52.586Z,18.8
2022-08-26T10:58:08.819Z,19.4
2022-08-26T10:59:25.065Z,17.8
2022-08-26T11:00:41.296Z,21.1
2022-08-26T11:01:57.536Z,18.4
2022-08-26T11:03:13.797Z,18.5
2022-08-26T11:04:30.017Z,19
2022-08-26T11:05:45.286Z,22.9
2022-08-26T11:07:01.514Z,21.3
2022-08-26T11:08:17.768Z,22.9
2022-08-26T11:09:34.004Z,21.9
2022-08-26T11:10:50.242Z,22.2
2022-08-26T11:12:06.489Z,23.5
2022-08-26T11:13:22.723Z,22.3
2022-08-26T11:14:38.977Z,23.4
2022-08-26T11:15:55.216Z,22.8
2022-08-26T11:17:11.454Z,21.6
2022-08-26T11:18:27.683Z,19.2
2022-08-26T11:19:43.929Z,18.3
2022-08-26T11:21:00.158Z,19.2
2022-08-26T11:22:15.417Z,13.4
2022-08-26T11:23:31.672Z,14.4
2022-08-26T11:24:47.904Z,13.6
2022-08-26T11:26:04.139Z,15.2
2022-08-26T11:27:20.382Z,13.2
2022-08-26T11:28:36.633Z,12.2
2022-08-26T11:29:52.875Z,11.6
2022-08-26T11:31:09.109Z,10.5
2022-08-26T11:32:25.344Z,9.6
2022-08-26T11:33:41.590Z,11.5
2022-08-26T11:34:57.819Z,11.6
2022-08-26T11:36:14.075Z,11.3
2022-08-26T11:37:30.000Z,11.9
2022-08-26T11:38:45.574Z,10.8
2022-08-26T11:40:01.800Z,11.5
2022-08-26T11:41:18.054Z,10
2022-08-26T11:43:50.534Z,11.8
2022-08-26T11:45:06.772Z,12.9
2022-08-26T11:46:23.008Z,10.4
2022-08-26T11:48:55.492Z,13
2022-08-26T11:50:11.729Z,12
2022-08-26T11:51:27.961Z,12.6
2022-08-26T11:54:00.439Z,12.4
2022-08-26T11:55:16.684Z,13.9
2022-08-26T11:56:32.933Z,13.8
2022-08-26T11:59:04.432Z,12.2
2022-08-26T12:00:19.697Z,11.1
2022-08-26T12:01:34.947Z,11.1
2022-08-26T12:02:51.189Z,10.9
2022-08-26T12:04:07.421Z,13.7
2022-08-26T12:05:23.678Z,11.4
2022-08-26T12:06:39.922Z,15.2
2022-08-26T12:07:56.160Z,12.2
2022-08-26T12:09:12.390Z,12.1
2022-08-26T12:10:28.632Z,10.4
2022-08-26T12:11:44.880Z,11.4
2022-08-26T12:13:01.108Z,10.4
2022-08-26T12:14:16.365Z,12.9
2022-08-26T12:15:31.631Z,11.9
2022-08-26T12:16:47.862Z,11.8
2022-08-26T12:18:04.101Z,10.3
2022-08-26T12:19:20.345Z,9.5
2022-08-26T12:20:36.600Z,11.9
2022-08-26T12:21:52.839Z,10.8
2022-08-26T12:23:09.064Z,10.8
2022-08-26T12:24:25.306Z,11.9
2022-08-26T12:25:41.550Z,19.7
2022-08-26T12:26:57.800Z,14
2022-08-26T12:28:14.028Z,13.6
2022-08-26T12:29:30.264Z,10.3
2022-08-26T12:30:46.511Z,12.5
2022-08-26T12:32:01.786Z,13.2
2022-08-26T12:33:18.012Z,10.9
2022-08-26T12:34:34.252Z,13.5
2022-08-26T12:35:50.491Z,12.4
2022-08-26T12:37:06.747Z,9.8
2022-08-26T12:38:22.980Z,12.1
2022-08-26T12:39:39.207Z,10.8
2022-08-26T12:40:55.461Z,9.9
2022-08-26T12:42:11.692Z,9.9
2022-08-26T12:43:27.943Z,9.7
2022-08-26T12:44:44.186Z,9.7
2022-08-26T12:46:00.424Z,11.5
2022-08-26T12:47:16.652Z,9.3
2022-08-26T12:48:31.915Z,11.2
2022-08-26T12:49:48.159Z,9.7
2022-08-26T12:51:04.389Z,9.9
2022-08-26T12:52:20.640Z,9
2022-08-26T12:53:36.875Z,11
2022-08-26T12:54:53.122Z,11.9
2022-08-26T12:56:09.360Z,9.1
2022-08-26T12:57:25.592Z,10.8
2022-08-26T12:58:41.832Z,7.8
2022-08-26T12:59:58.072Z,9.6
2022-08-26T13:01:14.324Z,9.2
2022-08-26T13:02:30.561Z,10.1
2022-08-26T13:05:03.030Z,9.1
2022-08-26T13:06:18.295Z,7.9
2022-08-26T13:07:34.535Z,7.7
2022-08-26T13:08:50.774Z,7.6
2022-08-26T13:10:07.020Z,10.7
2022-08-26T13:12:39.492Z,8.5
2022-08-26T13:13:55.747Z,9.9
2022-08-26T13:15:11.972Z,8.9
2022-08-26T13:16:28.220Z,9.1
2022-08-26T13:17:44.462Z,9.8
2022-08-26T13:19:00.700Z,8.8
2022-08-26T13:20:16.943Z,8.2
2022-08-26T13:21:33.169Z,7.9
2022-08-26T13:22:48.430Z,7.9
2022-08-26T13:24:04.684Z,8.6
2022-08-26T13:25:20.907Z,9
2022-08-26T13:26:37.148Z,15.9
2022-08-26T13:27:53.401Z,8.7
2022-08-26T13:29:09.639Z,25.4
2022-08-26T13:30:25.876Z,10.1
2022-08-26T13:31:42.119Z,9.6
2022-08-26T13:32:58.347Z,12.8
2022-08-26T13:34:14.599Z,11.5
2022-08-26T13:35:30.830Z,9.3
2022-08-26T13:36:47.070Z,8.9
2022-08-26T13:38:03.315Z,10.3
2022-08-26T13:39:18.576Z,8.6
2022-08-26T13:40:34.814Z,9.1
2022-08-26T13:43:07.285Z,8.1
2022-08-26T13:44:23.542Z,10.4
2022-08-26T13:45:39.768Z,9
2022-08-26T13:46:56.014Z,9.3
2022-08-26T13:48:12.258Z,10.8
2022-08-26T13:50:44.736Z,9.2
2022-08-26T13:52:00.967Z,9.2
2022-08-26T13:53:17.224Z,10.7
2022-08-26T13:54:33.462Z,10.2
2022-08-26T13:55:48.716Z,9.2
2022-08-26T13:57:04.949Z,8.7
2022-08-26T13:58:21.204Z,9.9
2022-08-26T13:59:37.436Z,9.5
2022-08-26T14:00:53.668Z,9.3
2022-08-26T14:02:09.924Z,10.6
2022-08-26T14:03:26.148Z,9.6
2022-08-26T14:07:14.890Z,9.1
2022-08-26T14:08:30.136Z,11.1
2022-08-26T14:09:45.407Z,9.4
2022-08-26T14:11:01.648Z,8.5
2022-08-26T14:13:34.113Z,8.8
2022-08-26T14:14:50.368Z,9.9
2022-08-26T14:16:06.590Z,9.4
2022-08-26T14:17:22.840Z,9.6
2022-08-26T14:18:39.080Z,9.9
2022-08-26T14:19:55.319Z,10.1
2022-08-26T14:21:11.568Z,11.5
2022-08-26T14:22:27.790Z,12.3
2022-08-26T14:23:44.049Z,10.8
2022-08-26T14:25:00.283Z,11
2022-08-26T14:26:15.531Z,9.7
2022-08-26T14:28:48.022Z,10.2
2022-08-26T14:31:19.522Z,13.2
2022-08-26T14:32:34.793Z,12.4
2022-08-26T14:33:50.044Z,11
2022-08-26T14:35:06.273Z,12.4
2022-08-26T14:36:22.526Z,10.9
2022-08-26T14:37:38.752Z,12.3
2022-08-26T14:38:55.001Z,11.5
2022-08-26T14:40:11.249Z,11.1
2022-08-26T14:41:27.479Z,10.8
2022-08-26T14:42:43.717Z,12.2
2022-08-26T14:43:59.954Z,12.5
2022-08-26T14:46:32.441Z,13.5
2022-08-26T14:47:48.682Z,11.5
2022-08-26T14:49:04.933Z,14
2022-08-26T14:51:36.427Z,12.2
2022-08-26T14:52:52.659Z,14.1
2022-08-26T14:54:08.908Z,13.3
2022-08-26T14:55:25.131Z,12.3
2022-08-26T14:56:41.385Z,12.9
2022-08-26T14:57:57.620Z,14.2
2022-08-26T14:59:13.862Z,11.6
2022-08-26T15:00:30.109Z,13.6
2022-08-26T15:01:46.352Z,14.6
2022-08-26T15:03:02.592Z,14.9
2022-08-26T15:04:18.822Z,13.8
2022-08-26T15:06:51.313Z,10.8
2022-08-26T15:08:06.554Z,14.7
2022-08-26T15:09:22.811Z,13.8
2022-08-26T15:10:39.034Z,13.1
2022-08-26T15:11:55.278Z,12.3
2022-08-26T15:13:11.513Z,13.4
2022-08-26T15:14:27.755Z,13.2
2022-08-26T15:15:44.008Z,14
2022-08-26T15:17:00.241Z,15
2022-08-26T15:18:15.511Z,14.8
2022-08-26T15:19:30.756Z,14
2022-08-26T15:20:47.010Z,14.9
2022-08-26T15:22:03.244Z,13.5
2022-08-26T15:23:19.489Z,13.2
2022-08-26T15:24:35.731Z,12.8
2022-08-26T15:25:51.970Z,14.5
2022-08-26T15:27:08.214Z,16
2022-08-26T15:28:24.436Z,12.7
2022-08-26T15:29:40.685Z,13.3
2022-08-26T15:30:56.925Z,13.6
2022-08-26T15:32:13.167Z,13.8
2022-08-26T15:33:28.432Z,13.6
2022-08-26T15:34:43.676Z,14.3
2022-08-26T15:37:16.164Z,11.8
2022-08-26T15:39:48.655Z,14.1
2022-08-26T15:41:04.885Z,13.4
2022-08-26T15:42:21.124Z,16.1
2022-08-26T15:44:53.598Z,15.1
2022-08-26T15:46:09.855Z,15.3
2022-08-26T15:47:26.097Z,13.7
2022-08-26T15:49:58.578Z,15.4
2022-08-26T15:51:13.830Z,17.1
2022-08-26T15:52:29.078Z,14.5
2022-08-26T15:53:44.339Z,15
2022-08-26T15:55:00.575Z,15.5
2022-08-26T15:56:16.817Z,15.1
2022-08-26T15:57:33.074Z,14.3
2022-08-26T15:58:49.303Z,14.7
2022-08-26T16:00:05.547Z,14.2
2022-08-26T16:01:21.790Z,13.9
2022-08-26T16:02:38.035Z,13.5
2022-08-26T16:03:54.275Z,18.2
2022-08-26T16:05:10.506Z,15.6
2022-08-26T16:07:42.019Z,15.6
2022-08-26T16:08:57.274Z,15.5
2022-08-26T16:10:13.504Z,16.4
2022-08-26T16:11:29.739Z,15.2
2022-08-26T16:12:45.979Z,16.5
2022-08-26T16:14:02.232Z,15.1
2022-08-26T16:15:18.469Z,16.2
2022-08-26T16:16:34.702Z,16.5
2022-08-26T16:17:50.936Z,16.2
2022-08-26T16:19:07.192Z,14.7
2022-08-26T16:20:22.459Z,14.2
2022-08-26T16:22:53.953Z,15.2
2022-08-26T16:24:10.189Z,15.7
2022-08-26T16:25:26.436Z,14.5
2022-08-26T16:26:42.664Z,15.4
2022-08-26T16:27:58.910Z,11.1
2022-08-26T16:29:15.145Z,12.6
2022-08-26T16:30:31.393Z,13.4
2022-08-26T16:31:47.629Z,11.9
2022-08-26T16:33:03.864Z,12.2
2022-08-26T16:34:20.108Z,12.9
2022-08-26T16:35:36.339Z,12.8
2022-08-26T16:36:52.588Z,12.4
2022-08-26T16:38:07.848Z,13.4
2022-08-26T16:40:40.334Z,14.3
2022-08-26T16:41:56.562Z,13.2
2022-08-26T16:43:12.812Z,14.7
2022-08-26T16:45:45.294Z,13
2022-08-26T16:47:00.560Z,14.1
2022-08-26T16:48:15.820Z,13.3
2022-08-26T16:49:32.065Z,13.9
2022-08-26T16:50:48.287Z,12.6
2022-08-26T16:52:04.544Z,13.1
2022-08-26T16:53:20.778Z,12.8
2022-08-26T16:54:37.009Z,13.7
2022-08-26T16:55:53.254Z,13.4
2022-08-26T16:57:09.493Z,11.5
2022-08-26T16:58:25.740Z,11.1
2022-08-26T17:00:58.217Z,9.8
2022-08-26T17:02:14.463Z,10.5
2022-08-26T17:03:30.694Z,10.9
2022-08-26T17:04:45.963Z,11
2022-08-26T17:06:02.194Z,13.1
2022-08-26T17:07:18.436Z,11.8
2022-08-26T17:08:34.681Z,9.9
2022-08-26T17:09:50.909Z,10.5
2022-08-26T17:11:07.097Z,12.4
2022-08-26T17:12:23.347Z,11
2022-08-26T17:13:39.578Z,11.8
2022-08-26T17:14:54.849Z,11
2022-08-26T17:16:10.101Z,11.8
2022-08-26T17:17:26.333Z,11.9
2022-08-26T17:18:42.581Z,11.8
2022-08-26T17:19:58.816Z,12.3
2022-08-26T17:21:15.063Z,11.8
2022-08-26T17:23:47.556Z,11.8
2022-08-26T17:25:03.784Z,13.1
2022-08-26T17:26:20.015Z,15.7
2022-08-26T17:27:36.263Z,14
2022-08-26T17:28:52.498Z,13.4
2022-08-26T17:30:08.741Z,14.1
2022-08-26T17:31:24.992Z,14.3
2022-08-26T17:32:40.250Z,12.5
2022-08-26T17:33:56.491Z,12.1
2022-08-26T17:35:12.716Z,13.2
2022-08-26T17:36:28.953Z,14.8
2022-08-26T17:37:45.203Z,12.5
2022-08-26T17:39:01.449Z,14
2022-08-26T17:40:17.673Z,13.9
2022-08-26T17:41:33.929Z,13.4
2022-08-26T17:42:50.159Z,14.6
2022-08-26T17:44:06.400Z,14.5
2022-08-26T17:45:22.636Z,13.3
2022-08-26T17:46:38.873Z,14
2022-08-26T17:47:55.133Z,14.9
2022-08-26T17:49:10.371Z,14.3
2022-08-26T17:50:26.624Z,15.2
2022-08-26T17:51:42.866Z,14.7
2022-08-26T17:52:59.093Z,14.6
2022-08-26T17:54:15.345Z,15.1
2022-08-26T17:55:31.574Z,13.8
2022-08-26T17:56:47.817Z,14.1
2022-08-26T17:58:04.063Z,15
2022-08-26T17:59:20.308Z,15.2
2022-08-26T18:00:36.535Z,14
2022-08-26T18:01:52.777Z,13.9
2022-08-26T18:03:09.021Z,14.1
2022-08-26T18:04:25.268Z,13.5
2022-08-26T18:05:40.509Z,13.8
2022-08-26T18:06:56.759Z,14.4
2022-08-26T18:09:29.243Z,15
2022-08-26T18:10:45.469Z,13.2
2022-08-26T18:12:01.711Z,13.7
2022-08-26T18:13:17.960Z,14.5
2022-08-26T18:14:34.209Z,13.9
2022-08-26T18:15:50.443Z,14.6
2022-08-26T18:17:06.686Z,18.2
2022-08-26T18:18:22.915Z,15.9
2022-08-26T18:19:39.159Z,14.2
2022-08-26T18:20:55.393Z,13.8